Hauptseite
METAR-TAF:

METAR-TAF

Flughäfen :

Flughafen Gabes

Gabès, Tunesien

Breite: 33-53N, Länge: 010-06E, Höhe: 4 m

Beobachtung

Neuester Wetterbericht von vor 54 Minuten, um 22:00 UTC
Wind 2 kt aus unterschiedlichen Richtungen
Temperatur 12°C
Luftfeuchtigkeit 58%
Luftdruck 1022 hPa
Sichtweite 10 km oder mehr
Aufgelockert bewölkt in der Höhe von 3000 ft

METAR: DTTG 252200Z VRB02KT 9999 SCT030 12/04 Q1022 NOSIG

Zeit: 23:54 (22:54 UTC)

Prognose

Neuester Wetterbericht von vor 1 Stunde und 54 Minuten, um 21:00 UTC
Gültige Prognose vom 25 um 22 UTC bis 26 um 07 UTC
Wind 5 kt aus West/Südwest
Sichtweite 10 km oder mehr
Aufgelockert bewölkt in der Höhe von 3000 ft

TAF: DTTG 252100Z 2522/2607 24005KT 9999 SCT030

Wetterbeobachtungen und Prognosen von mehr als 4000 Flughäfen (METAR und TAF Bericht).

Die verfügbaren Stationen werden durch gelbe und rote Markierungen auf der Karte dargestellt.

Führen Sie die Maus auf sie, um den Namen der Station zu sehen.

Darauf klicken, um die Beobachtung von Wetterbeobachtungen und Prognosen zu sehen.

Um die Karte zu ändern : klicken Sie auf den grünen Tasten mit einem schwarzen Kreuz Zum Vergrößern, auf den grünen Button mit einem Gedankenstrich zu verkleinern, oder auf die grünen Pfeile für benachbarte Karten.


METAR-TAF: